createdAt,value
2019-02-17T00:00:11.452Z,4.04
2019-02-17T00:01:11.430Z,4.06
2019-02-17T00:02:11.408Z,4.07
2019-02-17T00:03:11.395Z,4.09
2019-02-17T00:04:11.377Z,4.09
2019-02-17T00:05:11.354Z,4.06
2019-02-17T00:06:11.346Z,4.04
2019-02-17T00:07:11.314Z,4.03
2019-02-17T00:08:11.376Z,4.00
2019-02-17T00:09:11.293Z,4.00
2019-02-17T00:10:11.271Z,3.99
2019-02-17T00:11:11.253Z,3.96
2019-02-17T00:12:11.229Z,3.96
2019-02-17T00:13:11.214Z,3.99
2019-02-17T00:14:11.221Z,3.99
2019-02-17T00:15:11.182Z,4.00
2019-02-17T00:16:11.158Z,3.99
2019-02-17T00:17:11.140Z,3.99
2019-02-17T00:18:11.110Z,3.99
2019-02-17T00:19:11.133Z,4.00
2019-02-17T00:20:11.084Z,3.99
2019-02-17T00:21:11.068Z,4.00
2019-02-17T00:22:11.051Z,3.99
2019-02-17T00:23:11.020Z,3.99
2019-02-17T00:24:11.026Z,4.00
2019-02-17T00:25:10.983Z,4.02
2019-02-17T00:26:11.030Z,4.00
2019-02-17T00:27:10.944Z,3.99
2019-02-17T00:28:10.924Z,3.99
2019-02-17T00:29:10.922Z,3.99
2019-02-17T00:30:10.907Z,3.99
2019-02-17T00:31:10.878Z,3.96
2019-02-17T00:32:10.909Z,3.95
2019-02-17T00:33:10.848Z,3.94
2019-02-17T00:34:10.831Z,3.92
2019-02-17T00:35:10.807Z,3.88
2019-02-17T00:36:10.914Z,3.85
2019-02-17T00:37:10.761Z,3.84
2019-02-17T00:38:10.756Z,3.84
2019-02-17T00:39:10.722Z,3.82
2019-02-17T00:40:10.701Z,3.81
2019-02-17T00:41:10.696Z,3.78
2019-02-17T00:42:10.697Z,3.78
2019-02-17T00:43:10.668Z,3.77
2019-02-17T00:44:10.630Z,3.74
2019-02-17T00:45:10.614Z,3.71
2019-02-17T00:46:10.602Z,3.70
2019-02-17T00:47:10.601Z,3.68
2019-02-17T00:48:10.562Z,3.66
2019-02-17T00:49:10.538Z,3.66
2019-02-17T00:50:10.526Z,3.66
2019-02-17T00:51:10.495Z,3.67
2019-02-17T00:52:10.518Z,3.67
2019-02-17T00:53:10.465Z,3.68
2019-02-17T00:54:10.446Z,3.70
2019-02-17T00:55:10.429Z,3.71
2019-02-17T00:56:10.415Z,3.71
2019-02-17T00:57:10.417Z,3.73
2019-02-17T00:58:10.374Z,3.73
2019-02-17T00:59:10.654Z,3.71
2019-02-17T01:00:10.338Z,3.71
2019-02-17T01:01:10.326Z,3.70
2019-02-17T01:02:10.332Z,3.70
2019-02-17T01:03:10.274Z,3.71
2019-02-17T01:04:10.257Z,3.70
2019-02-17T01:05:10.275Z,3.70
2019-02-17T01:06:10.216Z,3.70
2019-02-17T01:07:10.217Z,3.68
2019-02-17T01:08:10.196Z,3.68
2019-02-17T01:09:10.221Z,3.66
2019-02-17T01:10:10.159Z,3.63
2019-02-17T01:11:10.134Z,3.64
2019-02-17T01:12:10.120Z,3.64
2019-02-17T01:13:10.089Z,3.64
2019-02-17T01:14:10.079Z,3.66
2019-02-17T01:15:10.081Z,3.64
2019-02-17T01:16:10.027Z,3.64
2019-02-17T01:17:10.022Z,3.63
2019-02-17T01:18:10.008Z,3.59
2019-02-17T01:19:09.978Z,3.58
2019-02-17T01:20:10.090Z,3.55
2019-02-17T01:21:09.935Z,3.53
2019-02-17T01:22:09.930Z,3.52
2019-02-17T01:23:09.902Z,3.50
2019-02-17T01:24:09.894Z,3.48
2019-02-17T01:25:09.860Z,3.48
2019-02-17T01:26:09.849Z,3.45
2019-02-17T01:27:09.846Z,3.45
2019-02-17T01:28:09.802Z,3.45
2019-02-17T01:29:19.766Z,3.43
2019-02-17T01:30:09.780Z,3.40
2019-02-17T01:31:09.792Z,3.40
2019-02-17T01:32:09.730Z,3.37
2019-02-17T01:33:09.723Z,3.37
2019-02-17T01:34:09.707Z,3.37
2019-02-17T01:35:09.672Z,3.36
2019-02-17T01:36:09.696Z,3.33
2019-02-17T01:37:09.634Z,3.31
2019-02-17T01:38:09.617Z,3.30
2019-02-17T01:39:09.613Z,3.29
2019-02-17T01:40:09.616Z,3.30
2019-02-17T01:41:09.593Z,3.29
2019-02-17T01:42:09.550Z,3.30
2019-02-17T01:43:09.525Z,3.30
2019-02-17T01:44:09.509Z,3.30
2019-02-17T01:45:09.504Z,3.27
2019-02-17T01:46:09.490Z,3.27
2019-02-17T01:47:09.489Z,3.27
2019-02-17T01:48:09.425Z,3.29
2019-02-17T01:49:09.415Z,3.29
2019-02-17T01:50:09.393Z,3.30
2019-02-17T01:51:09.371Z,3.30
2019-02-17T01:52:09.495Z,3.30
2019-02-17T01:53:09.337Z,3.33
2019-02-17T01:54:09.327Z,3.33
2019-02-17T01:55:09.303Z,3.34
2019-02-17T01:56:09.275Z,3.33
2019-02-17T01:57:09.262Z,3.33
2019-02-17T01:58:09.306Z,3.34
2019-02-17T01:59:09.228Z,3.36
2019-02-17T02:00:09.211Z,3.37
2019-02-17T02:01:09.180Z,3.37
2019-02-17T02:02:09.167Z,3.36
2019-02-17T02:03:09.144Z,3.37
2019-02-17T02:04:09.195Z,3.37
2019-02-17T02:05:09.104Z,3.37
2019-02-17T02:06:09.090Z,3.36
2019-02-17T02:07:09.078Z,3.36
2019-02-17T02:08:09.066Z,3.36
2019-02-17T02:09:09.029Z,3.36
2019-02-17T02:10:09.043Z,3.36
2019-02-17T02:11:08.992Z,3.36
2019-02-17T02:12:08.983Z,3.34
2019-02-17T02:13:08.962Z,3.36
2019-02-17T02:14:08.934Z,3.33
2019-02-17T02:15:08.928Z,3.34
2019-02-17T02:16:08.895Z,3.33
2019-02-17T02:17:08.882Z,3.31
2019-02-17T02:18:08.866Z,3.31
2019-02-17T02:19:08.843Z,3.31
2019-02-17T02:20:08.844Z,3.31
2019-02-17T02:21:08.797Z,3.33
2019-02-17T02:22:08.813Z,3.34
2019-02-17T02:23:08.762Z,3.36
2019-02-17T02:24:08.756Z,3.36
2019-02-17T02:25:08.872Z,3.37
2019-02-17T02:26:08.713Z,3.36
2019-02-17T02:27:08.691Z,3.36
2019-02-17T02:28:08.674Z,3.36
2019-02-17T02:29:08.653Z,3.37
2019-02-17T02:30:08.637Z,3.36
2019-02-17T02:31:08.649Z,3.36
2019-02-17T02:32:08.601Z,3.40
2019-02-17T02:33:08.601Z,3.40
2019-02-17T02:34:08.552Z,3.40
2019-02-17T02:35:08.541Z,3.40
2019-02-17T02:36:08.535Z,3.41
2019-02-17T02:37:08.493Z,3.41
2019-02-17T02:38:08.510Z,3.43
2019-02-17T02:39:08.465Z,3.43
2019-02-17T02:40:08.455Z,3.45
2019-02-17T02:41:08.460Z,3.45
2019-02-17T02:42:08.449Z,3.43
2019-02-17T02:43:08.378Z,3.43
2019-02-17T02:44:08.357Z,3.43
2019-02-17T02:45:08.351Z,3.46
2019-02-17T02:46:08.335Z,3.46
2019-02-17T02:47:08.336Z,3.50
2019-02-17T02:48:08.290Z,3.50
2019-02-17T02:49:08.278Z,3.49
2019-02-17T02:50:08.259Z,3.49
2019-02-17T02:51:08.241Z,3.49
2019-02-17T02:52:08.257Z,3.50
2019-02-17T02:53:08.200Z,3.50
2019-02-17T02:54:08.176Z,3.50
2019-02-17T02:55:08.147Z,3.49
2019-02-17T02:56:08.140Z,3.49
2019-02-17T02:57:08.151Z,3.48
2019-02-17T02:58:08.095Z,3.48
2019-02-17T02:59:08.094Z,3.48
2019-02-17T03:00:08.065Z,3.48
2019-02-17T03:01:08.039Z,3.48
2019-02-17T03:02:08.171Z,3.49
2019-02-17T03:03:08.003Z,3.49
2019-02-17T03:04:07.988Z,3.48
2019-02-17T03:05:07.977Z,3.49
2019-02-17T03:06:07.945Z,3.50
2019-02-17T03:07:07.923Z,3.52
2019-02-17T03:08:07.984Z,3.53
2019-02-17T03:09:07.895Z,3.53
2019-02-17T03:10:07.884Z,3.55
2019-02-17T03:11:07.846Z,3.59
2019-02-17T03:12:07.829Z,3.58
2019-02-17T03:13:07.818Z,3.58
2019-02-17T03:14:07.944Z,3.58
2019-02-17T03:15:07.786Z,3.58
2019-02-17T03:16:07.758Z,3.56
2019-02-17T03:17:07.752Z,3.56
2019-02-17T03:18:07.728Z,3.53
2019-02-17T03:19:07.707Z,3.53
2019-02-17T03:20:07.699Z,3.53
2019-02-17T03:21:07.654Z,3.53
2019-02-17T03:22:07.640Z,3.53
2019-02-17T03:23:07.621Z,3.55
2019-02-17T03:24:07.606Z,3.55
2019-02-17T03:25:07.587Z,3.53
2019-02-17T03:26:07.582Z,3.53
2019-02-17T03:27:07.557Z,3.55
2019-02-17T03:28:07.529Z,3.56
2019-02-17T03:29:07.511Z,3.56
2019-02-17T03:30:07.519Z,3.59
2019-02-17T03:31:07.470Z,3.59
2019-02-17T03:32:07.465Z,3.59
2019-02-17T03:33:07.435Z,3.58
2019-02-17T03:34:07.416Z,3.55
2019-02-17T03:35:07.543Z,3.55
2019-02-17T03:36:07.372Z,3.56
2019-02-17T03:37:07.367Z,3.59
2019-02-17T03:38:07.337Z,3.61
2019-02-17T03:39:07.316Z,3.61
2019-02-17T03:40:07.308Z,3.61
2019-02-17T03:41:07.307Z,3.63
2019-02-17T03:42:07.271Z,3.63
2019-02-17T03:43:07.251Z,3.59
2019-02-17T03:44:07.241Z,3.59
2019-02-17T03:45:07.220Z,3.58
2019-02-17T03:46:07.224Z,3.56
2019-02-17T03:47:07.207Z,3.55
2019-02-17T03:48:07.161Z,3.53
2019-02-17T03:49:07.136Z,3.53
2019-02-17T03:50:07.129Z,3.52
2019-02-17T03:51:07.099Z,3.53
2019-02-17T03:52:07.112Z,3.55
2019-02-17T03:53:07.053Z,3.53
2019-02-17T03:54:07.046Z,3.52
2019-02-17T03:55:07.030Z,3.53
2019-02-17T03:56:07.005Z,3.50
2019-02-17T03:57:06.975Z,3.50
2019-02-17T03:58:07.025Z,3.49
2019-02-17T03:59:06.950Z,3.49
2019-02-17T04:00:16.429Z,3.48
2019-02-17T04:01:06.913Z,3.49
2019-02-17T04:02:06.892Z,3.48
2019-02-17T04:03:06.862Z,3.46
2019-02-17T04:04:06.905Z,3.46
2019-02-17T04:05:06.836Z,3.41
2019-02-17T04:06:06.814Z,3.36
2019-02-17T04:07:06.790Z,3.33
2019-02-17T04:08:06.787Z,3.30
2019-02-17T04:09:06.755Z,3.26
2019-02-17T04:10:06.730Z,3.24
2019-02-17T04:11:06.718Z,3.21
2019-02-17T04:12:06.695Z,3.18
2019-02-17T04:13:06.674Z,3.15
2019-02-17T04:14:06.667Z,3.13
2019-02-17T04:15:06.678Z,3.12
2019-02-17T04:16:06.615Z,3.11
2019-02-17T04:17:06.607Z,3.09
2019-02-17T04:18:06.588Z,3.09
2019-02-17T04:19:06.564Z,3.06
2019-02-17T04:20:06.594Z,3.06
2019-02-17T04:21:06.670Z,3.08
2019-02-17T04:22:06.554Z,3.08
2019-02-17T04:23:06.480Z,3.09
2019-02-17T04:24:06.609Z,3.08
2019-02-17T04:25:06.446Z,3.06
2019-02-17T04:26:06.435Z,3.08
2019-02-17T04:27:06.437Z,3.08
2019-02-17T04:28:06.419Z,3.06
2019-02-17T04:29:06.375Z,3.06
2019-02-17T04:30:06.388Z,3.06
2019-02-17T04:31:06.362Z,3.03
2019-02-17T04:32:06.304Z,3.03
2019-02-17T04:33:06.338Z,3.03
2019-02-17T04:34:06.265Z,3.01
2019-02-17T04:35:06.284Z,3.01
2019-02-17T04:36:06.265Z,3.03
2019-02-17T04:37:06.214Z,3.01
2019-02-17T04:38:06.209Z,3.01
2019-02-17T04:39:06.173Z,3.01
2019-02-17T04:40:06.160Z,3.00
2019-02-17T04:41:06.185Z,3.00
2019-02-17T04:42:06.115Z,3.00
2019-02-17T04:43:06.115Z,2.98
2019-02-17T04:44:06.088Z,2.98
2019-02-17T04:45:06.071Z,2.98
2019-02-17T04:46:06.109Z,2.98
2019-02-17T04:47:06.019Z,2.98
2019-02-17T04:48:06.016Z,2.98
2019-02-17T04:49:05.981Z,2.97
2019-02-17T04:50:05.964Z,2.95
2019-02-17T04:51:05.952Z,2.95
2019-02-17T04:52:05.971Z,2.95
2019-02-17T04:53:05.905Z,2.97
2019-02-17T04:54:05.893Z,2.97
2019-02-17T04:55:05.886Z,3.00
2019-02-17T04:56:05.880Z,3.03
2019-02-17T04:57:05.893Z,3.05
2019-02-17T04:58:05.812Z,3.08
2019-02-17T04:59:05.794Z,3.06
2019-02-17T05:00:05.773Z,3.05
2019-02-17T05:01:05.756Z,3.06
2019-02-17T05:02:05.744Z,3.06
2019-02-17T05:03:05.728Z,3.05
2019-02-17T05:04:05.707Z,3.03
2019-02-17T05:05:05.676Z,3.01
2019-02-17T05:06:05.668Z,3.00
2019-02-17T05:07:05.648Z,2.97
2019-02-17T05:08:05.663Z,2.98
2019-02-17T05:09:05.607Z,2.98
2019-02-17T05:10:05.575Z,2.97
2019-02-17T05:11:05.562Z,2.95
2019-02-17T05:12:05.550Z,2.95
2019-02-17T05:13:05.550Z,2.95
2019-02-17T05:14:05.506Z,2.95
2019-02-17T05:15:05.507Z,3.00
2019-02-17T05:16:05.463Z,3.00
2019-02-17T05:17:05.443Z,3.01
2019-02-17T05:18:05.468Z,3.00
2019-02-17T05:19:05.423Z,3.00
2019-02-17T05:20:05.398Z,3.01
2019-02-17T05:21:05.469Z,3.01
2019-02-17T05:22:05.362Z,3.01
2019-02-17T05:23:05.332Z,3.03
2019-02-17T05:24:05.338Z,3.05
2019-02-17T05:25:05.291Z,3.03
2019-02-17T05:26:05.301Z,3.05
2019-02-17T05:27:05.267Z,3.03
2019-02-17T05:28:05.238Z,3.01
2019-02-17T05:29:05.211Z,3.03
2019-02-17T05:30:05.204Z,3.01
2019-02-17T05:31:05.215Z,3.05
2019-02-17T05:32:05.163Z,3.05
2019-02-17T05:33:05.141Z,3.06
2019-02-17T05:34:05.113Z,3.05
2019-02-17T05:35:05.110Z,3.08
2019-02-17T05:36:05.114Z,3.09
2019-02-17T05:37:05.070Z,3.08
2019-02-17T05:38:05.074Z,3.08
2019-02-17T05:39:05.018Z,3.06
2019-02-17T05:40:05.005Z,3.05
2019-02-17T05:41:05.057Z,3.05
2019-02-17T05:42:04.973Z,3.03
2019-02-17T05:43:04.947Z,3.01
2019-02-17T05:44:04.933Z,3.01
2019-02-17T05:45:04.906Z,3.00
2019-02-17T05:46:04.923Z,2.98
2019-02-17T05:47:04.870Z,2.98
2019-02-17T05:48:04.843Z,2.97
2019-02-17T05:49:04.821Z,2.97
2019-02-17T05:50:04.806Z,2.95
2019-02-17T05:51:04.918Z,2.94
2019-02-17T05:52:04.776Z,2.94
2019-02-17T05:53:04.749Z,2.93
2019-02-17T05:54:04.734Z,2.91
2019-02-17T05:55:04.719Z,2.91
2019-02-17T05:56:04.704Z,2.90
2019-02-17T05:57:04.683Z,2.91
2019-02-17T05:58:04.785Z,2.90
2019-02-17T05:59:04.634Z,2.88
2019-02-17T06:00:04.628Z,2.90
2019-02-17T06:01:07.277Z,2.91
2019-02-17T06:02:04.578Z,2.91
2019-02-17T06:03:04.560Z,2.90
2019-02-17T06:04:04.538Z,2.88
2019-02-17T06:05:04.517Z,2.88
2019-02-17T06:06:04.664Z,2.88
2019-02-17T06:07:04.476Z,2.85
2019-02-17T06:08:04.464Z,2.83
2019-02-17T06:09:04.444Z,2.82
2019-02-17T06:10:04.420Z,2.82
2019-02-17T06:11:04.408Z,2.80
2019-02-17T06:12:04.387Z,2.79
2019-02-17T06:13:04.361Z,2.77
2019-02-17T06:14:04.348Z,2.76
2019-02-17T06:15:04.389Z,2.73
2019-02-17T06:16:04.304Z,2.73
2019-02-17T06:17:04.294Z,2.73
2019-02-17T06:18:04.269Z,2.70
2019-02-17T06:19:04.317Z,2.69
2019-02-17T06:20:04.229Z,2.69
2019-02-17T06:21:04.235Z,2.65
2019-02-17T06:22:04.204Z,2.65
2019-02-17T06:23:04.324Z,2.64
2019-02-17T06:24:04.156Z,2.64
2019-02-17T06:25:04.143Z,2.65
2019-02-17T06:26:04.123Z,2.62
2019-02-17T06:27:04.091Z,2.62
2019-02-17T06:28:04.072Z,2.64
2019-02-17T06:29:04.084Z,2.62
2019-02-17T06:30:04.042Z,2.65
2019-02-17T06:31:13.711Z,2.64
2019-02-17T06:32:03.999Z,2.64
2019-02-17T06:33:04.038Z,2.62
2019-02-17T06:34:03.956Z,2.61
2019-02-17T06:35:03.930Z,2.57
2019-02-17T06:36:03.927Z,2.57
2019-02-17T06:37:03.902Z,2.55
2019-02-17T06:38:03.874Z,2.54
2019-02-17T06:39:03.893Z,2.51
2019-02-17T06:40:03.842Z,2.51
2019-02-17T06:41:03.829Z,2.47
2019-02-17T06:42:03.802Z,2.50
2019-02-17T06:43:03.795Z,2.47
2019-02-17T06:44:03.827Z,2.44
2019-02-17T06:45:03.740Z,2.43
2019-02-17T06:46:03.730Z,2.41
2019-02-17T06:47:03.703Z,2.40
2019-02-17T06:48:03.693Z,2.40
2019-02-17T06:49:03.677Z,2.39
2019-02-17T06:50:03.652Z,2.37
2019-02-17T06:51:03.627Z,2.36
2019-02-17T06:52:03.614Z,2.36
2019-02-17T06:53:03.590Z,2.36
2019-02-17T06:54:03.572Z,2.37
2019-02-17T06:55:03.581Z,2.37
2019-02-17T06:56:03.572Z,2.37
2019-02-17T06:57:03.512Z,2.39
2019-02-17T06:58:03.498Z,2.39
2019-02-17T06:59:03.467Z,2.40
2019-02-17T07:00:03.468Z,2.40
2019-02-17T07:01:03.477Z,2.41
2019-02-17T07:02:03.411Z,2.41
2019-02-17T07:03:03.398Z,2.41
2019-02-17T07:04:03.376Z,2.43
2019-02-17T07:05:03.363Z,2.44
2019-02-17T07:06:03.382Z,2.44
2019-02-17T07:07:03.319Z,2.47
2019-02-17T07:08:03.291Z,2.46
2019-02-17T07:09:04.798Z,2.47
2019-02-17T07:10:03.252Z,2.50
2019-02-17T07:11:03.249Z,2.51
2019-02-17T07:12:03.275Z,2.50
2019-02-17T07:13:03.204Z,2.50
2019-02-17T07:14:03.194Z,2.50
2019-02-17T07:15:03.162Z,2.50
2019-02-17T07:16:03.137Z,2.50
2019-02-17T07:17:03.157Z,2.50
2019-02-17T07:18:03.102Z,2.51
2019-02-17T07:19:03.229Z,2.52
2019-02-17T07:20:03.061Z,2.55
2019-02-17T07:21:03.035Z,2.52
2019-02-17T07:22:03.059Z,2.51
2019-02-17T07:23:03.008Z,2.50
2019-02-17T07:24:02.978Z,2.51
2019-02-17T07:25:02.964Z,2.54
2019-02-17T07:26:02.953Z,2.54
2019-02-17T07:27:02.975Z,2.55
2019-02-17T07:28:02.972Z,2.55
2019-02-17T07:29:02.885Z,2.58
2019-02-17T07:30:02.862Z,2.59
2019-02-17T07:31:02.847Z,2.61
2019-02-17T07:32:02.832Z,2.62
2019-02-17T07:33:02.813Z,2.64
2019-02-17T07:34:02.815Z,2.65
2019-02-17T07:35:02.782Z,2.69
2019-02-17T07:36:02.779Z,2.70
2019-02-17T07:37:02.742Z,2.73
2019-02-17T07:38:02.715Z,2.77
2019-02-17T07:39:02.718Z,2.77
2019-02-17T07:40:02.666Z,2.79
2019-02-17T07:41:02.706Z,2.80
2019-02-17T07:42:02.636Z,2.80
2019-02-17T07:43:02.625Z,2.80
2019-02-17T07:44:02.589Z,2.80
2019-02-17T07:45:02.572Z,2.83
2019-02-17T07:46:02.564Z,2.83
2019-02-17T07:47:02.572Z,2.85
2019-02-17T07:48:02.513Z,2.85
2019-02-17T07:49:02.524Z,2.85
2019-02-17T07:50:02.491Z,2.90
2019-02-17T07:51:02.487Z,2.88
2019-02-17T07:52:02.521Z,2.93
2019-02-17T07:53:02.419Z,2.93
2019-02-17T07:54:02.408Z,2.94
2019-02-17T07:55:02.382Z,2.95
2019-02-17T07:56:02.406Z,2.97
2019-02-17T07:57:02.345Z,2.98
2019-02-17T07:58:02.327Z,3.00
2019-02-17T07:59:02.305Z,3.01
2019-02-17T08:00:02.282Z,3.03
2019-02-17T08:01:02.296Z,3.05
2019-02-17T08:02:02.318Z,3.06
2019-02-17T08:03:02.233Z,3.11
2019-02-17T08:04:02.203Z,3.11
2019-02-17T08:05:02.189Z,3.12
2019-02-17T08:06:02.166Z,3.15
2019-02-17T08:07:02.180Z,3.16
2019-02-17T08:08:02.199Z,3.19
2019-02-17T08:09:02.108Z,3.22
2019-02-17T08:10:02.087Z,3.24
2019-02-17T08:11:04.269Z,3.33
2019-02-17T08:12:02.063Z,3.40
2019-02-17T08:13:02.030Z,3.50
2019-02-17T08:14:02.075Z,3.58
2019-02-17T08:15:01.991Z,3.64
2019-02-17T08:16:01.988Z,3.67
2019-02-17T08:17:01.954Z,3.71
2019-02-17T08:18:01.938Z,3.77
2019-02-17T08:19:01.922Z,3.84
2019-02-17T08:20:01.917Z,3.84
2019-02-17T08:21:01.888Z,3.86
2019-02-17T08:22:01.854Z,3.91
2019-02-17T08:23:01.848Z,3.99
2019-02-17T08:24:01.835Z,4.00
2019-02-17T08:25:01.955Z,4.00
2019-02-17T08:26:01.782Z,4.07
2019-02-17T08:27:01.773Z,4.09
2019-02-17T08:28:01.751Z,4.10
2019-02-17T08:29:01.742Z,4.10
2019-02-17T08:30:01.721Z,4.10
2019-02-17T08:31:01.718Z,4.10
2019-02-17T08:32:01.676Z,4.12
2019-02-17T08:33:01.658Z,4.24
2019-02-17T08:34:01.639Z,4.27
2019-02-17T08:35:01.607Z,4.27
2019-02-17T08:36:01.654Z,4.31
2019-02-17T08:37:01.570Z,4.32
2019-02-17T08:38:03.414Z,4.32
2019-02-17T08:39:01.533Z,4.34
2019-02-17T08:40:01.530Z,4.46
2019-02-17T08:41:01.495Z,4.50
2019-02-17T08:42:01.537Z,4.50
2019-02-17T08:43:01.466Z,4.58
2019-02-17T08:44:01.447Z,4.61
2019-02-17T08:45:01.430Z,4.61
2019-02-17T08:46:01.409Z,4.68
2019-02-17T08:47:01.392Z,4.70
2019-02-17T08:48:01.374Z,4.74
2019-02-17T08:49:01.427Z,4.78
2019-02-17T08:50:01.340Z,4.90
2019-02-17T08:51:01.316Z,4.89
2019-02-17T08:52:01.317Z,5.00
2019-02-17T08:53:01.416Z,5.07
2019-02-17T08:54:01.261Z,5.12
2019-02-17T08:55:01.240Z,5.15
2019-02-17T08:56:01.225Z,5.26
2019-02-17T08:57:01.198Z,5.31
2019-02-17T08:58:01.180Z,5.37
2019-02-17T08:59:01.213Z,5.43
2019-02-17T09:00:01.147Z,5.52
2019-02-17T09:01:01.130Z,5.59
2019-02-17T09:02:05.857Z,5.59
2019-02-17T09:03:01.225Z,5.67
2019-02-17T09:04:01.379Z,5.72
2019-02-17T09:05:01.060Z,5.69
2019-02-17T09:06:01.041Z,5.69
2019-02-17T09:07:01.027Z,5.76
2019-02-17T09:08:01.003Z,5.81
2019-02-17T09:09:00.982Z,5.87
2019-02-17T09:10:00.965Z,5.87
2019-02-17T09:11:00.939Z,5.87
2019-02-17T09:12:01.136Z,5.91
2019-02-17T09:13:01.113Z,5.97
2019-02-17T09:14:00.978Z,6.01
2019-02-17T09:15:01.144Z,6.01
2019-02-17T09:16:00.851Z,6.07
2019-02-17T09:17:00.843Z,6.10
2019-02-17T09:18:00.814Z,6.15
2019-02-17T09:19:00.800Z,6.17
2019-02-17T09:20:00.802Z,6.17
2019-02-17T09:21:00.755Z,6.20
2019-02-17T09:22:00.746Z,6.26
2019-02-17T09:23:00.717Z,6.26
2019-02-17T09:24:00.700Z,6.29
2019-02-17T09:25:00.691Z,6.28
2019-02-17T09:26:00.676Z,6.26
2019-02-17T09:27:00.642Z,6.26
2019-02-17T09:28:00.637Z,6.29
2019-02-17T09:29:00.610Z,6.36
2019-02-17T09:30:00.598Z,6.38
2019-02-17T09:31:00.637Z,6.36
2019-02-17T09:32:00.560Z,6.43
2019-02-17T09:33:00.537Z,6.43
2019-02-17T09:34:00.518Z,6.46
2019-02-17T09:35:00.508Z,6.49
2019-02-17T09:36:00.498Z,6.49
2019-02-17T09:37:00.508Z,6.50
2019-02-17T09:38:00.476Z,6.53
2019-02-17T09:39:00.432Z,6.53
2019-02-17T09:40:00.417Z,6.67
2019-02-17T09:41:00.456Z,6.70
2019-02-17T09:42:00.392Z,6.77
2019-02-17T09:43:00.355Z,6.80
2019-02-17T09:44:00.348Z,6.85
2019-02-17T09:45:00.349Z,6.86
2019-02-17T09:46:00.299Z,6.86
2019-02-17T09:47:00.330Z,6.90
2019-02-17T09:48:00.268Z,6.95
2019-02-17T09:49:00.259Z,7.03
2019-02-17T09:50:00.335Z,7.04
2019-02-17T09:51:00.226Z,7.03
2019-02-17T09:52:00.209Z,7.01
2019-02-17T09:53:00.183Z,7.07
2019-02-17T09:54:00.172Z,7.08
2019-02-17T09:55:00.254Z,7.10
2019-02-17T09:56:00.131Z,7.13
2019-02-17T09:57:00.113Z,7.19
2019-02-17T09:58:00.094Z,7.23
2019-02-17T09:59:00.075Z,7.32
2019-02-17T10:00:00.227Z,7.32
2019-02-17T10:01:00.053Z,7.36
2019-02-17T10:02:00.018Z,7.36
2019-02-17T10:03:00.008Z,7.40
2019-02-17T10:03:59.985Z,7.50
2019-02-17T10:04:59.975Z,7.56
2019-02-17T10:05:59.980Z,7.55
2019-02-17T10:06:59.938Z,7.55
2019-02-17T10:07:59.910Z,7.55
2019-02-17T10:08:59.888Z,7.56
2019-02-17T10:09:59.906Z,7.59
2019-02-17T10:11:00.009Z,7.67
2019-02-17T10:11:59.844Z,7.95
2019-02-17T10:13:01.365Z,8.18
2019-02-17T10:13:59.798Z,8.17
2019-02-17T10:14:59.789Z,8.16
2019-02-17T10:15:59.770Z,8.18
2019-02-17T10:17:00.677Z,8.17
2019-02-17T10:18:01.274Z,8.20
2019-02-17T10:19:00.530Z,8.24
2019-02-17T10:20:00.559Z,8.24
2019-02-17T10:21:00.205Z,8.23
2019-02-17T10:22:00.564Z,8.17
2019-02-17T10:22:59.645Z,8.13
2019-02-17T10:23:59.632Z,8.08
2019-02-17T10:24:59.617Z,8.09
2019-02-17T10:25:59.676Z,8.09
2019-02-17T10:26:59.587Z,8.06
2019-02-17T10:27:59.573Z,8.06
2019-02-17T10:28:59.556Z,8.13
2019-02-17T10:29:59.541Z,8.11
2019-02-17T10:30:59.514Z,8.17
2019-02-17T10:31:59.501Z,8.21
2019-02-17T10:32:59.614Z,8.26
2019-02-17T10:33:59.459Z,8.26
2019-02-17T10:34:59.446Z,8.32
2019-02-17T10:35:59.426Z,8.35
2019-02-17T10:36:59.426Z,8.42
2019-02-17T10:37:59.403Z,8.45
2019-02-17T10:38:59.421Z,8.50
2019-02-17T10:39:59.364Z,8.49
2019-02-17T10:40:59.356Z,8.50
2019-02-17T10:41:59.325Z,8.60
2019-02-17T10:42:59.311Z,8.63
2019-02-17T10:43:59.377Z,8.64
2019-02-17T10:44:59.273Z,8.64
2019-02-17T10:45:59.270Z,8.69
2019-02-17T10:46:59.254Z,8.77
2019-02-17T10:47:59.240Z,8.87
2019-02-17T10:48:59.213Z,8.90
2019-02-17T10:49:59.205Z,8.97
2019-02-17T10:50:59.171Z,9.03
2019-02-17T10:51:59.155Z,9.11
2019-02-17T10:52:59.149Z,9.13
2019-02-17T10:53:59.134Z,9.12
2019-02-17T10:54:59.147Z,9.21
2019-02-17T10:55:59.126Z,9.19
2019-02-17T10:56:59.093Z,9.22
2019-02-17T10:57:59.063Z,9.21
2019-02-17T10:58:59.037Z,9.26
2019-02-17T10:59:59.031Z,9.31
2019-02-17T11:00:59.035Z,9.34
2019-02-17T11:01:59.023Z,9.39
2019-02-17T11:02:58.989Z,9.44
2019-02-17T11:03:58.961Z,9.49
2019-02-17T11:04:58.941Z,9.49
2019-02-17T11:05:58.952Z,9.51
2019-02-17T11:07:00.027Z,9.58
2019-02-17T11:07:58.902Z,9.66
2019-02-17T11:08:58.876Z,9.76
2019-02-17T11:09:58.869Z,9.82
2019-02-17T11:10:58.916Z,9.87
2019-02-17T11:11:58.837Z,9.87
2019-02-17T11:12:58.819Z,9.92
2019-02-17T11:13:58.805Z,9.92
2019-02-17T11:14:58.791Z,9.94
2019-02-17T11:15:58.774Z,10.00
2019-02-17T11:16:58.790Z,10.02
2019-02-17T11:17:58.763Z,10.02
2019-02-17T11:18:58.845Z,10.06
2019-02-17T11:19:58.714Z,10.09
2019-02-17T11:20:58.691Z,10.13
2019-02-17T11:21:58.668Z,10.12
2019-02-17T11:22:58.703Z,10.21
2019-02-17T11:23:58.648Z,10.30
2019-02-17T11:24:58.633Z,10.45
2019-02-17T11:25:58.607Z,10.58
2019-02-17T11:26:58.602Z,10.59
2019-02-17T11:27:58.606Z,10.67
2019-02-17T11:28:58.565Z,10.72
2019-02-17T11:29:58.587Z,10.72
2019-02-17T11:30:58.534Z,10.82
2019-02-17T11:31:58.524Z,10.87
2019-02-17T11:32:58.514Z,10.98
2019-02-17T11:33:58.485Z,11.01
2019-02-17T11:34:58.485Z,11.16
2019-02-17T11:35:58.454Z,11.33
2019-02-17T11:36:58.438Z,11.34
2019-02-17T11:37:58.427Z,11.33
2019-02-17T11:38:58.424Z,11.26
2019-02-17T11:39:58.403Z,11.19
2019-02-17T11:40:58.382Z,11.20
2019-02-17T11:41:58.369Z,11.15
2019-02-17T11:42:58.359Z,11.07
2019-02-17T11:43:58.340Z,11.10
2019-02-17T11:44:58.464Z,11.07
2019-02-17T11:45:58.321Z,11.10
2019-02-17T11:46:58.297Z,11.15
2019-02-17T11:47:58.291Z,11.15
2019-02-17T11:48:58.274Z,11.22
2019-02-17T11:49:58.251Z,11.30
2019-02-17T11:50:58.267Z,11.31
2019-02-17T11:51:58.220Z,11.38
2019-02-17T11:52:58.206Z,11.52
2019-02-17T11:53:58.202Z,11.67
2019-02-17T11:54:58.186Z,11.85
2019-02-17T11:55:58.208Z,12.23
2019-02-17T11:56:58.303Z,12.48
2019-02-17T11:57:58.134Z,12.70
2019-02-17T11:58:58.120Z,12.86
2019-02-17T11:59:58.122Z,12.98
2019-02-17T12:00:58.100Z,13.13
2019-02-17T12:01:58.086Z,13.49
2019-02-17T12:03:07.281Z,13.47
2019-02-17T12:03:58.057Z,13.49
2019-02-17T12:04:58.064Z,13.49
2019-02-17T12:05:58.043Z,13.70
2019-02-17T12:07:00.238Z,13.86
2019-02-17T12:07:58.057Z,14.34
2019-02-17T12:08:58.001Z,14.45
2019-02-17T12:09:57.998Z,14.58
2019-02-17T12:10:57.985Z,14.85
2019-02-17T12:11:57.961Z,14.73
2019-02-17T12:12:57.961Z,14.82
2019-02-17T12:13:57.971Z,14.96
2019-02-17T12:14:57.943Z,14.78
2019-02-17T12:15:57.935Z,14.61
2019-02-17T12:16:57.937Z,14.49
2019-02-17T12:17:59.291Z,14.45
2019-02-17T12:18:57.884Z,14.34
2019-02-17T12:19:57.897Z,14.37
2019-02-17T12:20:57.863Z,14.38
2019-02-17T12:21:57.859Z,14.44
2019-02-17T12:22:57.861Z,14.45
2019-02-17T12:23:57.850Z,14.52
2019-02-17T12:24:57.867Z,14.44
2019-02-17T12:25:57.820Z,14.40
2019-02-17T12:26:57.815Z,14.41
2019-02-17T12:27:57.833Z,14.49
2019-02-17T12:28:57.784Z,14.49
2019-02-17T12:29:57.769Z,14.51
2019-02-17T12:30:57.782Z,14.56
2019-02-17T12:31:57.952Z,14.68
2019-02-17T12:32:57.786Z,14.93
2019-02-17T12:33:57.745Z,14.93
2019-02-17T12:34:57.727Z,15.27
2019-02-17T12:35:57.711Z,15.26
2019-02-17T12:36:57.700Z,15.26
2019-02-17T12:37:57.702Z,15.26
2019-02-17T12:38:57.682Z,15.27
2019-02-17T12:39:57.682Z,15.25
2019-02-17T12:40:57.681Z,15.18
2019-02-17T12:41:57.656Z,15.32
2019-02-17T12:42:57.639Z,15.33
2019-02-17T12:43:57.674Z,15.29
2019-02-17T12:44:57.670Z,15.22
2019-02-17T12:45:57.631Z,15.22
2019-02-17T12:46:57.612Z,15.36
2019-02-17T12:47:58.547Z,15.45
2019-02-17T12:48:57.601Z,15.30
2019-02-17T12:49:57.613Z,15.29
2019-02-17T12:50:57.566Z,15.29
2019-02-17T12:51:57.569Z,15.11
2019-02-17T12:52:57.585Z,15.05
2019-02-17T12:53:57.547Z,15.11
2019-02-17T12:54:57.525Z,15.02
2019-02-17T12:55:57.524Z,14.79
2019-02-17T12:56:57.515Z,14.70
2019-02-17T12:57:57.551Z,14.61
2019-02-17T12:58:57.629Z,14.62
2019-02-17T12:59:57.476Z,14.71
2019-02-17T13:00:57.465Z,14.82
2019-02-17T13:01:57.468Z,14.87
2019-02-17T13:02:57.457Z,15.08
2019-02-17T13:03:57.465Z,15.27
2019-02-17T13:04:57.444Z,15.41
2019-02-17T13:05:57.418Z,15.54
2019-02-17T13:06:57.415Z,15.54
2019-02-17T13:07:57.439Z,15.51
2019-02-17T13:08:57.435Z,15.44
2019-02-17T13:09:57.393Z,15.18
2019-02-17T13:10:57.367Z,15.15
2019-02-17T13:11:57.370Z,15.12
2019-02-17T13:12:57.366Z,15.11
2019-02-17T13:13:57.378Z,15.05